sensor_id;sensor_type;location;lat;lon;timestamp;temperature;humidity
25092;DHT22;13082;52.374;4.946;2022-09-09T00:04:37;16.90;99.90
25092;DHT22;13082;52.374;4.946;2022-09-09T00:07:19;16.90;99.90
25092;DHT22;13082;52.374;4.946;2022-09-09T00:10:00;17.00;99.90
25092;DHT22;13082;52.374;4.946;2022-09-09T00:12:48;16.90;99.90
25092;DHT22;13082;52.374;4.946;2022-09-09T00:15:33;16.90;99.90
25092;DHT22;13082;52.374;4.946;2022-09-09T00:18:15;16.90;99.90
25092;DHT22;13082;52.374;4.946;2022-09-09T00:26:13;16.70;99.90
25092;DHT22;13082;52.374;4.946;2022-09-09T00:29:10;16.70;99.90
25092;DHT22;13082;52.374;4.946;2022-09-09T00:31:40;16.70;99.90
25092;DHT22;13082;52.374;4.946;2022-09-09T00:34:19;16.70;99.90
25092;DHT22;13082;52.374;4.946;2022-09-09T00:36:49;16.70;99.90
25092;DHT22;13082;52.374;4.946;2022-09-09T00:39:45;16.80;99.90
25092;DHT22;13082;52.374;4.946;2022-09-09T00:44:52;16.70;99.90
25092;DHT22;13082;52.374;4.946;2022-09-09T00:50:01;16.70;99.90
25092;DHT22;13082;52.374;4.946;2022-09-09T00:52:44;16.60;99.90
25092;DHT22;13082;52.374;4.946;2022-09-09T00:55:16;16.60;99.90
25092;DHT22;13082;52.374;4.946;2022-09-09T00:57:44;16.60;99.90
25092;DHT22;13082;52.374;4.946;2022-09-09T01:00:36;16.60;99.90
25092;DHT22;13082;52.374;4.946;2022-09-09T01:06:11;16.50;99.90
25092;DHT22;13082;52.374;4.946;2022-09-09T01:09:05;16.50;99.90
25092;DHT22;13082;52.374;4.946;2022-09-09T01:22:35;16.60;99.90
25092;DHT22;13082;52.374;4.946;2022-09-09T01:27:47;16.50;99.90
25092;DHT22;13082;52.374;4.946;2022-09-09T01:30:16;16.50;99.90
25092;DHT22;13082;52.374;4.946;2022-09-09T01:32:44;16.40;99.90
25092;DHT22;13082;52.374;4.946;2022-09-09T01:38:04;16.40;99.90
25092;DHT22;13082;52.374;4.946;2022-09-09T01:40:30;16.40;99.90
25092;DHT22;13082;52.374;4.946;2022-09-09T01:42:56;16.30;99.90
25092;DHT22;13082;52.374;4.946;2022-09-09T01:45:22;16.30;99.90
25092;DHT22;13082;52.374;4.946;2022-09-09T01:47:49;16.30;99.90
25092;DHT22;13082;52.374;4.946;2022-09-09T01:50:17;16.20;99.90
25092;DHT22;13082;52.374;4.946;2022-09-09T01:52:44;16.20;99.90
25092;DHT22;13082;52.374;4.946;2022-09-09T01:55:11;16.20;99.90
25092;DHT22;13082;52.374;4.946;2022-09-09T01:57:56;16.20;99.90
25092;DHT22;13082;52.374;4.946;2022-09-09T02:00:27;16.20;99.90
25092;DHT22;13082;52.374;4.946;2022-09-09T02:03:08;16.20;99.90
25092;DHT22;13082;52.374;4.946;2022-09-09T02:05:53;16.20;99.90
25092;DHT22;13082;52.374;4.946;2022-09-09T02:11:17;16.30;99.90
25092;DHT22;13082;52.374;4.946;2022-09-09T02:13:46;16.20;99.90
25092;DHT22;13082;52.374;4.946;2022-09-09T02:16:13;16.30;99.90
25092;DHT22;13082;52.374;4.946;2022-09-09T02:19:42;16.30;99.90
25092;DHT22;13082;52.374;4.946;2022-09-09T02:21:54;16.30;99.90
25092;DHT22;13082;52.374;4.946;2022-09-09T02:24:21;16.20;99.90
25092;DHT22;13082;52.374;4.946;2022-09-09T02:26:49;16.10;99.90
25092;DHT22;13082;52.374;4.946;2022-09-09T02:29:21;16.20;99.90
25092;DHT22;13082;52.374;4.946;2022-09-09T02:31:49;16.20;99.90
25092;DHT22;13082;52.374;4.946;2022-09-09T02:34:18;16.20;99.90
25092;DHT22;13082;52.374;4.946;2022-09-09T02:36:45;16.10;99.90
25092;DHT22;13082;52.374;4.946;2022-09-09T02:39:12;16.10;99.90
25092;DHT22;13082;52.374;4.946;2022-09-09T02:41:40;16.20;99.90
25092;DHT22;13082;52.374;4.946;2022-09-09T02:44:14;16.20;99.90
25092;DHT22;13082;52.374;4.946;2022-09-09T02:47:09;16.20;99.90
25092;DHT22;13082;52.374;4.946;2022-09-09T02:52:38;16.20;99.90
25092;DHT22;13082;52.374;4.946;2022-09-09T02:57:54;16.30;99.90
25092;DHT22;13082;52.374;4.946;2022-09-09T03:00:26;16.20;99.90
25092;DHT22;13082;52.374;4.946;2022-09-09T03:02:53;16.20;99.90
25092;DHT22;13082;52.374;4.946;2022-09-09T03:05:20;16.10;99.90
25092;DHT22;13082;52.374;4.946;2022-09-09T03:07:46;16.10;99.90
25092;DHT22;13082;52.374;4.946;2022-09-09T03:10:11;16.10;99.90
25092;DHT22;13082;52.374;4.946;2022-09-09T03:12:37;16.10;99.90
25092;DHT22;13082;52.374;4.946;2022-09-09T03:15:04;16.10;99.90
25092;DHT22;13082;52.374;4.946;2022-09-09T03:17:30;16.10;99.90
25092;DHT22;13082;52.374;4.946;2022-09-09T03:19:55;16.00;99.90
25092;DHT22;13082;52.374;4.946;2022-09-09T03:22:24;16.00;99.90
25092;DHT22;13082;52.374;4.946;2022-09-09T03:24:51;15.90;99.90
25092;DHT22;13082;52.374;4.946;2022-09-09T03:27:17;15.90;99.90
25092;DHT22;13082;52.374;4.946;2022-09-09T03:29:42;15.90;99.90
25092;DHT22;13082;52.374;4.946;2022-09-09T03:32:08;15.90;99.90
25092;DHT22;13082;52.374;4.946;2022-09-09T03:34:36;15.90;99.90
25092;DHT22;13082;52.374;4.946;2022-09-09T03:37:05;15.90;99.90
25092;DHT22;13082;52.374;4.946;2022-09-09T03:39:31;15.90;99.90
25092;DHT22;13082;52.374;4.946;2022-09-09T03:41:57;15.80;99.90
25092;DHT22;13082;52.374;4.946;2022-09-09T03:44:22;15.90;99.90
25092;DHT22;13082;52.374;4.946;2022-09-09T03:46:48;15.80;99.90
25092;DHT22;13082;52.374;4.946;2022-09-09T03:49:14;15.80;99.90
25092;DHT22;13082;52.374;4.946;2022-09-09T03:51:40;15.80;99.90
25092;DHT22;13082;52.374;4.946;2022-09-09T03:54:06;15.80;99.90
25092;DHT22;13082;52.374;4.946;2022-09-09T03:56:34;15.80;99.90
25092;DHT22;13082;52.374;4.946;2022-09-09T03:59:00;15.80;99.90
25092;DHT22;13082;52.374;4.946;2022-09-09T04:01:26;15.70;99.90
25092;DHT22;13082;52.374;4.946;2022-09-09T04:03:52;15.70;99.90
25092;DHT22;13082;52.374;4.946;2022-09-09T04:06:18;15.60;99.90
25092;DHT22;13082;52.374;4.946;2022-09-09T04:08:45;15.60;99.90
25092;DHT22;13082;52.374;4.946;2022-09-09T04:11:14;15.60;99.90
25092;DHT22;13082;52.374;4.946;2022-09-09T04:13:40;15.60;99.90
25092;DHT22;13082;52.374;4.946;2022-09-09T04:16:08;15.60;99.90
25092;DHT22;13082;52.374;4.946;2022-09-09T04:18:34;15.60;99.90
25092;DHT22;13082;52.374;4.946;2022-09-09T04:21:00;15.60;99.90
25092;DHT22;13082;52.374;4.946;2022-09-09T04:23:28;15.70;99.90
25092;DHT22;13082;52.374;4.946;2022-09-09T04:25:58;15.70;99.90
25092;DHT22;13082;52.374;4.946;2022-09-09T04:28:26;15.60;99.90
25092;DHT22;13082;52.374;4.946;2022-09-09T04:30:52;15.60;99.90
25092;DHT22;13082;52.374;4.946;2022-09-09T04:33:18;15.70;99.90
25092;DHT22;13082;52.374;4.946;2022-09-09T04:35:53;15.70;99.90
25092;DHT22;13082;52.374;4.946;2022-09-09T04:38:19;15.70;99.90
25092;DHT22;13082;52.374;4.946;2022-09-09T04:40:49;15.70;99.90
25092;DHT22;13082;52.374;4.946;2022-09-09T04:43:15;15.70;99.90
25092;DHT22;13082;52.374;4.946;2022-09-09T04:45:41;15.70;99.90
25092;DHT22;13082;52.374;4.946;2022-09-09T04:48:08;15.60;99.90
25092;DHT22;13082;52.374;4.946;2022-09-09T04:50:35;15.60;99.90
25092;DHT22;13082;52.374;4.946;2022-09-09T04:53:04;15.60;99.90
25092;DHT22;13082;52.374;4.946;2022-09-09T04:55:31;15.60;99.90
25092;DHT22;13082;52.374;4.946;2022-09-09T04:57:56;15.60;99.90
25092;DHT22;13082;52.374;4.946;2022-09-09T05:00:25;15.60;99.90
25092;DHT22;13082;52.374;4.946;2022-09-09T05:02:51;15.70;99.90
25092;DHT22;13082;52.374;4.946;2022-09-09T05:05:16;15.60;99.90
25092;DHT22;13082;52.374;4.946;2022-09-09T05:07:43;15.60;99.90
25092;DHT22;13082;52.374;4.946;2022-09-09T05:10:09;15.60;99.90
25092;DHT22;13082;52.374;4.946;2022-09-09T05:12:35;15.60;99.90
25092;DHT22;13082;52.374;4.946;2022-09-09T05:15:02;15.60;99.90
25092;DHT22;13082;52.374;4.946;2022-09-09T05:17:28;15.60;99.90
25092;DHT22;13082;52.374;4.946;2022-09-09T05:19:54;15.60;99.90
25092;DHT22;13082;52.374;4.946;2022-09-09T05:22:20;15.60;99.90
25092;DHT22;13082;52.374;4.946;2022-09-09T05:24:46;15.60;99.90
25092;DHT22;13082;52.374;4.946;2022-09-09T05:27:12;15.50;99.90
25092;DHT22;13082;52.374;4.946;2022-09-09T05:29:38;15.50;99.90
25092;DHT22;13082;52.374;4.946;2022-09-09T05:32:04;15.50;99.90
25092;DHT22;13082;52.374;4.946;2022-09-09T05:34:29;15.50;99.90
25092;DHT22;13082;52.374;4.946;2022-09-09T05:36:55;15.60;99.90
25092;DHT22;13082;52.374;4.946;2022-09-09T05:39:21;15.60;99.90
25092;DHT22;13082;52.374;4.946;2022-09-09T05:41:46;15.50;99.90
25092;DHT22;13082;52.374;4.946;2022-09-09T05:44:12;15.50;99.90
25092;DHT22;13082;52.374;4.946;2022-09-09T05:46:39;15.50;99.90
25092;DHT22;13082;52.374;4.946;2022-09-09T05:49:05;15.60;99.90
25092;DHT22;13082;52.374;4.946;2022-09-09T05:51:31;15.60;99.90
25092;DHT22;13082;52.374;4.946;2022-09-09T05:53:57;15.60;99.90
25092;DHT22;13082;52.374;4.946;2022-09-09T05:56:27;15.60;99.90
25092;DHT22;13082;52.374;4.946;2022-09-09T05:58:54;15.60;99.90
25092;DHT22;13082;52.374;4.946;2022-09-09T06:01:22;15.70;99.90
25092;DHT22;13082;52.374;4.946;2022-09-09T06:03:49;15.60;99.90
25092;DHT22;13082;52.374;4.946;2022-09-09T06:06:17;15.70;99.90
25092;DHT22;13082;52.374;4.946;2022-09-09T06:08:44;15.70;99.90
25092;DHT22;13082;52.374;4.946;2022-09-09T06:11:13;15.70;99.90
25092;DHT22;13082;52.374;4.946;2022-09-09T06:13:39;15.70;99.90
25092;DHT22;13082;52.374;4.946;2022-09-09T06:16:10;15.70;99.90
25092;DHT22;13082;52.374;4.946;2022-09-09T06:18:37;15.70;99.90
25092;DHT22;13082;52.374;4.946;2022-09-09T06:21:05;15.70;99.90
25092;DHT22;13082;52.374;4.946;2022-09-09T06:23:33;15.70;99.90
25092;DHT22;13082;52.374;4.946;2022-09-09T06:26:09;15.70;99.90
25092;DHT22;13082;52.374;4.946;2022-09-09T06:28:36;15.80;99.90
25092;DHT22;13082;52.374;4.946;2022-09-09T06:31:05;15.80;99.90
25092;DHT22;13082;52.374;4.946;2022-09-09T06:33:32;15.80;99.90
25092;DHT22;13082;52.374;4.946;2022-09-09T06:36:00;15.90;99.90
25092;DHT22;13082;52.374;4.946;2022-09-09T06:38:26;15.90;99.90
25092;DHT22;13082;52.374;4.946;2022-09-09T06:40:57;15.90;99.90
25092;DHT22;13082;52.374;4.946;2022-09-09T06:43:25;15.90;99.90
25092;DHT22;13082;52.374;4.946;2022-09-09T06:45:55;15.90;99.90
25092;DHT22;13082;52.374;4.946;2022-09-09T06:48:21;15.90;99.90
25092;DHT22;13082;52.374;4.946;2022-09-09T06:50:47;16.00;99.90
25092;DHT22;13082;52.374;4.946;2022-09-09T06:53:16;16.20;99.90
25092;DHT22;13082;52.374;4.946;2022-09-09T06:55:42;16.20;99.90
25092;DHT22;13082;52.374;4.946;2022-09-09T06:58:09;16.30;99.90
25092;DHT22;13082;52.374;4.946;2022-09-09T07:00:35;16.40;99.90
25092;DHT22;13082;52.374;4.946;2022-09-09T07:03:03;16.50;99.90
25092;DHT22;13082;52.374;4.946;2022-09-09T07:05:28;16.50;99.90
25092;DHT22;13082;52.374;4.946;2022-09-09T07:07:54;16.60;99.90
25092;DHT22;13082;52.374;4.946;2022-09-09T07:10:19;16.60;99.90
25092;DHT22;13082;52.374;4.946;2022-09-09T07:12:50;16.70;99.90
25092;DHT22;13082;52.374;4.946;2022-09-09T07:15:17;16.60;99.90
25092;DHT22;13082;52.374;4.946;2022-09-09T07:17:44;16.60;99.90
25092;DHT22;13082;52.374;4.946;2022-09-09T07:20:10;16.60;99.90
25092;DHT22;13082;52.374;4.946;2022-09-09T07:22:35;16.50;99.90
25092;DHT22;13082;52.374;4.946;2022-09-09T07:25:01;16.60;99.90
25092;DHT22;13082;52.374;4.946;2022-09-09T07:27:27;16.60;99.90
25092;DHT22;13082;52.374;4.946;2022-09-09T07:29:53;16.60;99.90
25092;DHT22;13082;52.374;4.946;2022-09-09T07:32:20;16.60;99.90
25092;DHT22;13082;52.374;4.946;2022-09-09T07:34:45;16.60;99.90
25092;DHT22;13082;52.374;4.946;2022-09-09T07:37:12;16.50;99.90
25092;DHT22;13082;52.374;4.946;2022-09-09T07:39:39;16.50;99.90
25092;DHT22;13082;52.374;4.946;2022-09-09T07:42:05;16.50;99.90
25092;DHT22;13082;52.374;4.946;2022-09-09T07:44:31;16.50;99.90
25092;DHT22;13082;52.374;4.946;2022-09-09T07:47:00;16.50;99.90
25092;DHT22;13082;52.374;4.946;2022-09-09T07:49:26;16.60;99.90
25092;DHT22;13082;52.374;4.946;2022-09-09T07:51:52;16.60;99.90
25092;DHT22;13082;52.374;4.946;2022-09-09T07:54:19;16.60;99.90
25092;DHT22;13082;52.374;4.946;2022-09-09T07:56:49;16.60;99.90
25092;DHT22;13082;52.374;4.946;2022-09-09T07:59:14;16.60;99.90
25092;DHT22;13082;52.374;4.946;2022-09-09T08:01:46;16.60;99.90
25092;DHT22;13082;52.374;4.946;2022-09-09T08:04:19;16.60;99.90
25092;DHT22;13082;52.374;4.946;2022-09-09T08:06:48;16.60;99.90
25092;DHT22;13082;52.374;4.946;2022-09-09T08:09:14;16.60;99.90
25092;DHT22;13082;52.374;4.946;2022-09-09T08:11:41;16.70;99.90
25092;DHT22;13082;52.374;4.946;2022-09-09T08:14:08;16.70;99.90
25092;DHT22;13082;52.374;4.946;2022-09-09T08:16:38;16.70;99.90
25092;DHT22;13082;52.374;4.946;2022-09-09T08:19:04;16.80;99.90
25092;DHT22;13082;52.374;4.946;2022-09-09T08:21:32;16.80;99.90
25092;DHT22;13082;52.374;4.946;2022-09-09T08:24:00;16.80;99.90
25092;DHT22;13082;52.374;4.946;2022-09-09T08:26:28;16.90;99.90
25092;DHT22;13082;52.374;4.946;2022-09-09T08:28:55;16.90;99.90
25092;DHT22;13082;52.374;4.946;2022-09-09T08:31:24;16.90;99.90
25092;DHT22;13082;52.374;4.946;2022-09-09T08:33:50;17.00;99.90
25092;DHT22;13082;52.374;4.946;2022-09-09T08:36:21;17.00;99.90
25092;DHT22;13082;52.374;4.946;2022-09-09T08:38:52;17.10;99.90
25092;DHT22;13082;52.374;4.946;2022-09-09T08:47:01;17.10;99.90
25092;DHT22;13082;52.374;4.946;2022-09-09T08:49:44;17.10;99.90
25092;DHT22;13082;52.374;4.946;2022-09-09T08:55:27;17.10;99.90
25092;DHT22;13082;52.374;4.946;2022-09-09T08:57:55;17.20;99.90
25092;DHT22;13082;52.374;4.946;2022-09-09T09:00:22;17.20;99.90
25092;DHT22;13082;52.374;4.946;2022-09-09T09:05:44;17.20;99.90
25092;DHT22;13082;52.374;4.946;2022-09-09T09:08:29;17.30;99.90
25092;DHT22;13082;52.374;4.946;2022-09-09T09:10:58;17.20;99.90
25092;DHT22;13082;52.374;4.946;2022-09-09T09:16:00;17.20;99.90
25092;DHT22;13082;52.374;4.946;2022-09-09T09:18:27;17.20;99.90
25092;DHT22;13082;52.374;4.946;2022-09-09T09:21:05;17.20;99.90
25092;DHT22;13082;52.374;4.946;2022-09-09T09:23:48;17.20;99.90
25092;DHT22;13082;52.374;4.946;2022-09-09T09:26:16;17.20;99.90
25092;DHT22;13082;52.374;4.946;2022-09-09T09:28:43;17.20;99.90
25092;DHT22;13082;52.374;4.946;2022-09-09T09:31:10;17.20;99.90
25092;DHT22;13082;52.374;4.946;2022-09-09T09:36:12;17.20;99.90
25092;DHT22;13082;52.374;4.946;2022-09-09T09:38:50;17.20;99.90
25092;DHT22;13082;52.374;4.946;2022-09-09T09:41:17;17.30;99.90
25092;DHT22;13082;52.374;4.946;2022-09-09T09:43:54;17.30;99.90
25092;DHT22;13082;52.374;4.946;2022-09-09T09:46:22;17.40;99.90
25092;DHT22;13082;52.374;4.946;2022-09-09T09:49:05;17.30;99.90
25092;DHT22;13082;52.374;4.946;2022-09-09T09:51:35;17.30;99.90
25092;DHT22;13082;52.374;4.946;2022-09-09T09:56:41;17.30;99.90
25092;DHT22;13082;52.374;4.946;2022-09-09T09:59:21;17.30;99.90
25092;DHT22;13082;52.374;4.946;2022-09-09T10:01:46;17.30;99.90
25092;DHT22;13082;52.374;4.946;2022-09-09T10:04:21;17.30;99.90
25092;DHT22;13082;52.374;4.946;2022-09-09T10:06:49;17.30;99.90
25092;DHT22;13082;52.374;4.946;2022-09-09T10:09:25;17.30;99.90
25092;DHT22;13082;52.374;4.946;2022-09-09T10:17:36;17.40;99.90
25092;DHT22;13082;52.374;4.946;2022-09-09T10:29:10;17.70;99.90
25092;DHT22;13082;52.374;4.946;2022-09-09T10:31:55;17.90;99.90
25092;DHT22;13082;52.374;4.946;2022-09-09T10:34:55;18.00;99.90
25092;DHT22;13082;52.374;4.946;2022-09-09T10:42:56;17.90;99.90
25092;DHT22;13082;52.374;4.946;2022-09-09T10:45:44;17.90;99.90
25092;DHT22;13082;52.374;4.946;2022-09-09T10:48:28;17.90;99.90
25092;DHT22;13082;52.374;4.946;2022-09-09T10:53:55;17.90;99.90
25092;DHT22;13082;52.374;4.946;2022-09-09T10:56:26;17.90;99.90
25092;DHT22;13082;52.374;4.946;2022-09-09T10:59:00;18.00;99.90
25092;DHT22;13082;52.374;4.946;2022-09-09T11:01:41;18.10;99.90
25092;DHT22;13082;52.374;4.946;2022-09-09T11:04:33;18.20;99.90
25092;DHT22;13082;52.374;4.946;2022-09-09T11:07:05;18.30;99.90
25092;DHT22;13082;52.374;4.946;2022-09-09T11:09:37;18.30;99.90
25092;DHT22;13082;52.374;4.946;2022-09-09T11:12:05;18.40;99.90
25092;DHT22;13082;52.374;4.946;2022-09-09T11:14:45;18.40;99.90
25092;DHT22;13082;52.374;4.946;2022-09-09T11:17:19;18.30;99.90
25092;DHT22;13082;52.374;4.946;2022-09-09T11:19:46;18.40;99.90
25092;DHT22;13082;52.374;4.946;2022-09-09T11:24:51;18.30;99.90
25092;DHT22;13082;52.374;4.946;2022-09-09T11:27:29;18.20;99.90
25092;DHT22;13082;52.374;4.946;2022-09-09T11:38:27;18.10;99.90
25092;DHT22;13082;52.374;4.946;2022-09-09T11:41:01;18.10;99.90
25092;DHT22;13082;52.374;4.946;2022-09-09T11:43:45;18.00;99.90
25092;DHT22;13082;52.374;4.946;2022-09-09T11:46:13;18.00;99.90
25092;DHT22;13082;52.374;4.946;2022-09-09T11:48:43;18.00;99.90
25092;DHT22;13082;52.374;4.946;2022-09-09T11:51:32;18.00;99.90
25092;DHT22;13082;52.374;4.946;2022-09-09T11:54:04;18.10;99.90
25092;DHT22;13082;52.374;4.946;2022-09-09T11:56:48;18.10;99.90
25092;DHT22;13082;52.374;4.946;2022-09-09T11:59:25;18.10;99.90
25092;DHT22;13082;52.374;4.946;2022-09-09T12:02:11;18.10;99.90
25092;DHT22;13082;52.374;4.946;2022-09-09T12:05:05;18.10;99.90
25092;DHT22;13082;52.374;4.946;2022-09-09T12:08:03;18.00;99.90
25092;DHT22;13082;52.374;4.946;2022-09-09T12:10:40;18.00;99.90
25092;DHT22;13082;52.374;4.946;2022-09-09T12:13:23;18.00;99.90
25092;DHT22;13082;52.374;4.946;2022-09-09T12:15:52;18.00;99.90
25092;DHT22;13082;52.374;4.946;2022-09-09T12:24:13;18.00;99.90
25092;DHT22;13082;52.374;4.946;2022-09-09T12:32:30;18.20;99.90
25092;DHT22;13082;52.374;4.946;2022-09-09T12:35:00;18.30;99.90
25092;DHT22;13082;52.374;4.946;2022-09-09T12:37:42;18.30;99.90
25092;DHT22;13082;52.374;4.946;2022-09-09T12:40:22;18.30;99.90
25092;DHT22;13082;52.374;4.946;2022-09-09T12:42:49;18.30;99.90
25092;DHT22;13082;52.374;4.946;2022-09-09T12:45:24;18.30;99.90
25092;DHT22;13082;52.374;4.946;2022-09-09T12:48:04;18.20;99.90
25092;DHT22;13082;52.374;4.946;2022-09-09T12:50:36;18.20;99.90
25092;DHT22;13082;52.374;4.946;2022-09-09T12:53:12;18.20;99.90
25092;DHT22;13082;52.374;4.946;2022-09-09T12:55:51;18.10;99.90
25092;DHT22;13082;52.374;4.946;2022-09-09T12:58:18;18.10;99.90
25092;DHT22;13082;52.374;4.946;2022-09-09T13:00:56;18.00;99.90
25092;DHT22;13082;52.374;4.946;2022-09-09T13:03:22;18.00;99.90
25092;DHT22;13082;52.374;4.946;2022-09-09T13:05:49;18.00;99.90
25092;DHT22;13082;52.374;4.946;2022-09-09T13:08:16;18.10;99.90
25092;DHT22;13082;52.374;4.946;2022-09-09T13:11:01;18.10;99.90
25092;DHT22;13082;52.374;4.946;2022-09-09T13:13:30;18.10;99.90
25092;DHT22;13082;52.374;4.946;2022-09-09T13:15:58;18.00;99.90
25092;DHT22;13082;52.374;4.946;2022-09-09T13:18:28;17.90;99.90
25092;DHT22;13082;52.374;4.946;2022-09-09T13:20:55;18.00;99.90
25092;DHT22;13082;52.374;4.946;2022-09-09T13:23:32;17.90;99.90
25092;DHT22;13082;52.374;4.946;2022-09-09T13:26:00;17.80;99.90
25092;DHT22;13082;52.374;4.946;2022-09-09T13:28:28;17.70;99.90
25092;DHT22;13082;52.374;4.946;2022-09-09T13:31:02;17.80;99.90
25092;DHT22;13082;52.374;4.946;2022-09-09T13:36:03;17.60;99.90
25092;DHT22;13082;52.374;4.946;2022-09-09T13:38:32;17.60;99.90
25092;DHT22;13082;52.374;4.946;2022-09-09T13:43:27;17.50;99.90
25092;DHT22;13082;52.374;4.946;2022-09-09T13:45:55;17.50;99.90
25092;DHT22;13082;52.374;4.946;2022-09-09T13:48:22;17.40;99.90
25092;DHT22;13082;52.374;4.946;2022-09-09T13:51:02;17.30;99.90
25092;DHT22;13082;52.374;4.946;2022-09-09T13:53:30;17.30;99.90
25092;DHT22;13082;52.374;4.946;2022-09-09T13:55:57;17.40;99.90
25092;DHT22;13082;52.374;4.946;2022-09-09T13:58:23;17.40;99.90
25092;DHT22;13082;52.374;4.946;2022-09-09T14:00:51;17.50;99.90
25092;DHT22;13082;52.374;4.946;2022-09-09T14:03:17;17.50;99.90
25092;DHT22;13082;52.374;4.946;2022-09-09T14:05:44;17.50;99.90
25092;DHT22;13082;52.374;4.946;2022-09-09T14:08:24;17.60;99.90
25092;DHT22;13082;52.374;4.946;2022-09-09T14:10:50;17.60;99.90
25092;DHT22;13082;52.374;4.946;2022-09-09T14:13:16;17.60;99.90
25092;DHT22;13082;52.374;4.946;2022-09-09T14:15:41;17.60;99.90
25092;DHT22;13082;52.374;4.946;2022-09-09T14:18:11;17.60;99.90
25092;DHT22;13082;52.374;4.946;2022-09-09T14:20:37;17.70;99.90
25092;DHT22;13082;52.374;4.946;2022-09-09T14:23:03;17.70;99.90
25092;DHT22;13082;52.374;4.946;2022-09-09T14:25:28;17.70;99.90
25092;DHT22;13082;52.374;4.946;2022-09-09T14:27:54;17.80;99.90
25092;DHT22;13082;52.374;4.946;2022-09-09T14:30:19;17.80;99.90
25092;DHT22;13082;52.374;4.946;2022-09-09T14:32:45;17.90;99.90
25092;DHT22;13082;52.374;4.946;2022-09-09T14:35:12;18.00;99.90
25092;DHT22;13082;52.374;4.946;2022-09-09T14:37:38;18.00;99.90
25092;DHT22;13082;52.374;4.946;2022-09-09T14:40:04;18.00;99.90
25092;DHT22;13082;52.374;4.946;2022-09-09T14:42:30;18.00;99.90
25092;DHT22;13082;52.374;4.946;2022-09-09T14:44:56;18.10;99.90
25092;DHT22;13082;52.374;4.946;2022-09-09T14:47:21;18.20;99.90
25092;DHT22;13082;52.374;4.946;2022-09-09T14:49:47;18.20;99.90
25092;DHT22;13082;52.374;4.946;2022-09-09T14:52:14;18.30;99.90
25092;DHT22;13082;52.374;4.946;2022-09-09T14:54:41;18.40;99.90
25092;DHT22;13082;52.374;4.946;2022-09-09T14:57:07;18.40;99.90
25092;DHT22;13082;52.374;4.946;2022-09-09T14:59:32;18.30;99.90
25092;DHT22;13082;52.374;4.946;2022-09-09T15:01:59;18.40;99.90
25092;DHT22;13082;52.374;4.946;2022-09-09T15:04:29;18.30;99.90
25092;DHT22;13082;52.374;4.946;2022-09-09T15:06:55;18.30;99.90
25092;DHT22;13082;52.374;4.946;2022-09-09T15:09:20;18.40;99.90
25092;DHT22;13082;52.374;4.946;2022-09-09T15:11:46;18.40;99.90
25092;DHT22;13082;52.374;4.946;2022-09-09T15:14:11;18.40;99.90
25092;DHT22;13082;52.374;4.946;2022-09-09T15:16:38;18.40;99.90
25092;DHT22;13082;52.374;4.946;2022-09-09T15:19:04;18.40;99.90
25092;DHT22;13082;52.374;4.946;2022-09-09T15:21:33;18.40;99.90
25092;DHT22;13082;52.374;4.946;2022-09-09T15:23:59;18.30;99.90
25092;DHT22;13082;52.374;4.946;2022-09-09T15:26:26;18.20;99.90
25092;DHT22;13082;52.374;4.946;2022-09-09T15:28:52;18.20;99.90
25092;DHT22;13082;52.374;4.946;2022-09-09T15:31:20;18.10;99.90
25092;DHT22;13082;52.374;4.946;2022-09-09T15:33:48;18.10;99.90
25092;DHT22;13082;52.374;4.946;2022-09-09T15:36:23;18.00;99.90
25092;DHT22;13082;52.374;4.946;2022-09-09T15:38:49;18.00;99.90
25092;DHT22;13082;52.374;4.946;2022-09-09T15:41:17;17.90;99.90
25092;DHT22;13082;52.374;4.946;2022-09-09T15:43:53;17.80;99.90
25092;DHT22;13082;52.374;4.946;2022-09-09T15:48:51;17.70;99.90
25092;DHT22;13082;52.374;4.946;2022-09-09T15:51:17;17.70;99.90
25092;DHT22;13082;52.374;4.946;2022-09-09T15:53:44;17.70;99.90
25092;DHT22;13082;52.374;4.946;2022-09-09T15:56:10;17.70;99.90
25092;DHT22;13082;52.374;4.946;2022-09-09T15:58:36;17.60;99.90
25092;DHT22;13082;52.374;4.946;2022-09-09T16:01:03;17.60;99.90
25092;DHT22;13082;52.374;4.946;2022-09-09T16:03:33;17.60;99.90
25092;DHT22;13082;52.374;4.946;2022-09-09T16:05:59;17.50;99.90
25092;DHT22;13082;52.374;4.946;2022-09-09T16:08:30;17.50;99.90
25092;DHT22;13082;52.374;4.946;2022-09-09T16:10:56;17.60;99.90
25092;DHT22;13082;52.374;4.946;2022-09-09T16:13:22;17.60;99.90
25092;DHT22;13082;52.374;4.946;2022-09-09T16:15:54;17.60;99.90
25092;DHT22;13082;52.374;4.946;2022-09-09T16:18:20;17.60;99.90
25092;DHT22;13082;52.374;4.946;2022-09-09T16:20:54;17.60;99.90
25092;DHT22;13082;52.374;4.946;2022-09-09T16:23:20;17.60;99.90
25092;DHT22;13082;52.374;4.946;2022-09-09T16:25:56;17.60;99.90
25092;DHT22;13082;52.374;4.946;2022-09-09T16:28:22;17.60;99.90
25092;DHT22;13082;52.374;4.946;2022-09-09T16:30:49;17.70;99.90
25092;DHT22;13082;52.374;4.946;2022-09-09T16:33:15;17.70;99.90
25092;DHT22;13082;52.374;4.946;2022-09-09T16:35:41;17.70;99.90
25092;DHT22;13082;52.374;4.946;2022-09-09T16:38:07;17.70;99.90
25092;DHT22;13082;52.374;4.946;2022-09-09T16:40:37;17.70;99.90
25092;DHT22;13082;52.374;4.946;2022-09-09T16:43:04;17.70;99.90
25092;DHT22;13082;52.374;4.946;2022-09-09T16:45:29;17.70;99.90
25092;DHT22;13082;52.374;4.946;2022-09-09T16:47:55;17.70;99.90
25092;DHT22;13082;52.374;4.946;2022-09-09T16:50:21;17.60;99.90
25092;DHT22;13082;52.374;4.946;2022-09-09T16:52:47;17.60;99.90
25092;DHT22;13082;52.374;4.946;2022-09-09T16:55:12;17.60;99.90
25092;DHT22;13082;52.374;4.946;2022-09-09T16:57:39;17.50;99.90
25092;DHT22;13082;52.374;4.946;2022-09-09T17:00:05;17.50;99.90
25092;DHT22;13082;52.374;4.946;2022-09-09T17:02:32;17.40;99.90
25092;DHT22;13082;52.374;4.946;2022-09-09T17:04:57;17.40;99.90
25092;DHT22;13082;52.374;4.946;2022-09-09T17:07:25;17.40;99.90
25092;DHT22;13082;52.374;4.946;2022-09-09T17:09:50;17.40;99.90
25092;DHT22;13082;52.374;4.946;2022-09-09T17:12:16;17.30;99.90
25092;DHT22;13082;52.374;4.946;2022-09-09T17:14:42;17.20;99.90
25092;DHT22;13082;52.374;4.946;2022-09-09T17:17:08;17.20;99.90
25092;DHT22;13082;52.374;4.946;2022-09-09T17:19:34;17.20;99.90
25092;DHT22;13082;52.374;4.946;2022-09-09T17:21:59;17.20;99.90
25092;DHT22;13082;52.374;4.946;2022-09-09T17:24:26;17.20;99.90
25092;DHT22;13082;52.374;4.946;2022-09-09T17:26:54;17.30;99.90
25092;DHT22;13082;52.374;4.946;2022-09-09T17:29:21;17.30;99.90
25092;DHT22;13082;52.374;4.946;2022-09-09T17:31:46;17.30;99.90
25092;DHT22;13082;52.374;4.946;2022-09-09T17:34:12;17.40;99.90
25092;DHT22;13082;52.374;4.946;2022-09-09T17:36:38;17.40;99.90
25092;DHT22;13082;52.374;4.946;2022-09-09T17:39:05;17.50;99.90
25092;DHT22;13082;52.374;4.946;2022-09-09T17:41:36;17.60;99.90